Kezdőlap
METAR-TAF:

METAR-TAF

Repülőterek :

Chapecó, Santa Catarina, Brazília

földrajzi szélesség: 27-08-02S, földrajzi hosszúság: 052-39-43W, magasság: 654 m

Jelenlegi meteorológiai megfigyelések

A jelentés 24 perccel ezelõtt készült, 08:00 UTC
Nyugati szél 9 kt
Hőmérséklet 7°C
Páratartalom 100%
Légköri nyomás 1021 hPa
Látótávolság: 6000 m
Szakadozott felhőzet 400 lábon
Szakadozott felhőzet 2000 lábon
Borult 8000 lábon
köd a közelben,

METAR: SBCH 280800Z 27009KT 6000 VCFG BKN004 BKN020 OVC080 07/07 Q1021

Idő: 05:24 (08:24 UTC)


TAF: hiányzik

Meteorológiai megfigyelések és előrejelzések több, mint 4000 repülőtéren (METAR és TAF jelentéseket).

A térképen piros és sárga pontok jelzik az elérhető meteorológiai állomásokat.

Mozgassa az egeret a pont fölött, hogy megjelenjen az állomás neve.

Azután kattintson az időjárási megfigyelések és előrejelzések megtekintéséhez.

A térkép megváltoztatása: kattintson a fekete keresztel jelölt zöld gombra ráközelítéshez, a vonallal jelölt zöld gombra távolításhoz, vagy a zöld nyilakra a szomszédos térképek eléréséhez.


METAR-TAF: